Terminal Aerodrome Forecast
Issued by NWS

Home | Current Version | Previous Version | Text Only | Print | Product List | Glossary On
Versions: 1 2 3 4 5 6 7 8 9 10 11 12 13 14 15 16 17 18 19 20 21 22 23 24 25 26 27 28 29
478
FTUS43 KLOT 250520
TAFMDW
TAF
KMDW 250520Z 2506/2612 15015G25KT 5SM -SHRA BR OVC006
     FM250700 25022G33KT P6SM BKN012
     FM251400 25018G28KT P6SM SCT025
     FM260000 24008KT P6SM FEW200=

USA.gov is the U.S. government's official web portal to all federal, state and local government web resources and services.